<?xml version="1.0" encoding="UTF-8" standalone="no" ?>
<gpx xmlns="http://www.topografix.com/GPX/1/1" xmlns:xsi="http://www.w3.org/2001/XMLSchema-instance" xsi:schemaLocation="http://www.topografix.com/GPX/1/1 http://www.topografix.com/GPX/1/1/gpx.xsd" version="1.1" creator="VisuGPX - https://www.visugpx.com">
  <metadata>
    <name>Sautron_Autour_8-10km</name>
    <desc><![CDATA[gnerando idor8372687_6691475_6690164_8372687]]></desc>
  </metadata>
  <trk>
    <name><![CDATA[Sautron _boucleNord_10.3km-8372687]]></name>
    <extensions>
      <line xmlns="http://www.topografix.com/GPX/gpx_style/0/2">
        <color>00FFFF</color>
        <width>4</width>
      </line>
    </extensions>
    <trkseg>
      <trkpt lat="47.26806" lon="-1.67107">
        <ele>43</ele>
        <time>2023-11-13T18:53:45Z</time>
      </trkpt>
      <trkpt lat="47.26805" lon="-1.67084">
        <ele>43</ele>
        <time>2023-11-13T18:54:06Z</time>
      </trkpt>
      <trkpt lat="47.26812" lon="-1.67064">
        <ele>44</ele>
        <time>2023-11-13T18:54:26Z</time>
      </trkpt>
      <trkpt lat="47.2682" lon="-1.67072">
        <ele>43</ele>
        <time>2023-11-13T18:54:39Z</time>
      </trkpt>
      <trkpt lat="47.26836" lon="-1.67095">
        <ele>42</ele>
        <time>2023-11-13T18:55:09Z</time>
      </trkpt>
      <trkpt lat="47.26866" lon="-1.67128">
        <ele>41</ele>
        <time>2023-11-13T18:55:59Z</time>
      </trkpt>
      <trkpt lat="47.2687" lon="-1.6714">
        <ele>41</ele>
        <time>2023-11-13T18:56:11Z</time>
      </trkpt>
      <trkpt lat="47.26873" lon="-1.67136">
        <ele>41</ele>
        <time>2023-11-13T18:56:16Z</time>
      </trkpt>
      <trkpt lat="47.26894" lon="-1.67125">
        <ele>41</ele>
        <time>2023-11-13T18:56:46Z</time>
      </trkpt>
      <trkpt lat="47.269" lon="-1.67119">
        <ele>41</ele>
        <time>2023-11-13T18:56:56Z</time>
      </trkpt>
      <trkpt lat="47.26912" lon="-1.67044">
        <ele>41</ele>
        <time>2023-11-13T18:58:06Z</time>
      </trkpt>
      <trkpt lat="47.2691" lon="-1.6702">
        <ele>41</ele>
        <time>2023-11-13T18:58:28Z</time>
      </trkpt>
      <trkpt lat="47.2692" lon="-1.66951">
        <ele>41</ele>
        <time>2023-11-13T18:59:31Z</time>
      </trkpt>
      <trkpt lat="47.26926" lon="-1.66939">
        <ele>42</ele>
        <time>2023-11-13T18:59:45Z</time>
      </trkpt>
      <trkpt lat="47.26923" lon="-1.66892">
        <ele>42</ele>
        <time>2023-11-13T19:00:28Z</time>
      </trkpt>
      <trkpt lat="47.2692" lon="-1.66884">
        <ele>42</ele>
        <time>2023-11-13T19:00:36Z</time>
      </trkpt>
      <trkpt lat="47.26914" lon="-1.66875">
        <ele>42</ele>
        <time>2023-11-13T19:00:47Z</time>
      </trkpt>
      <trkpt lat="47.26914" lon="-1.66861">
        <ele>41</ele>
        <time>2023-11-13T19:01:00Z</time>
      </trkpt>
      <trkpt lat="47.26891" lon="-1.66804">
        <ele>42</ele>
        <time>2023-11-13T19:02:00Z</time>
      </trkpt>
      <trkpt lat="47.26878" lon="-1.66802">
        <ele>41</ele>
        <time>2023-11-13T19:02:18Z</time>
      </trkpt>
      <trkpt lat="47.26873" lon="-1.66796">
        <ele>41</ele>
        <time>2023-11-13T19:02:26Z</time>
      </trkpt>
      <trkpt lat="47.26868" lon="-1.66779">
        <ele>41</ele>
        <time>2023-11-13T19:02:43Z</time>
      </trkpt>
      <trkpt lat="47.26857" lon="-1.6677">
        <ele>41</ele>
        <time>2023-11-13T19:03:00Z</time>
      </trkpt>
      <trkpt lat="47.26849" lon="-1.66766">
        <ele>40</ele>
        <time>2023-11-13T19:03:11Z</time>
      </trkpt>
      <trkpt lat="47.26809" lon="-1.66709">
        <ele>43</ele>
        <time>2023-11-13T19:04:25Z</time>
      </trkpt>
      <trkpt lat="47.26796" lon="-1.66686">
        <ele>44</ele>
        <time>2023-11-13T19:04:52Z</time>
      </trkpt>
      <trkpt lat="47.26787" lon="-1.66659">
        <ele>45</ele>
        <time>2023-11-13T19:05:20Z</time>
      </trkpt>
      <trkpt lat="47.26773" lon="-1.66636">
        <ele>44</ele>
        <time>2023-11-13T19:05:48Z</time>
      </trkpt>
      <trkpt lat="47.26759" lon="-1.66603">
        <ele>42</ele>
        <time>2023-11-13T19:06:23Z</time>
      </trkpt>
      <trkpt lat="47.26754" lon="-1.666">
        <ele>42</ele>
        <time>2023-11-13T19:06:30Z</time>
      </trkpt>
      <trkpt lat="47.26733" lon="-1.66609">
        <ele>43</ele>
        <time>2023-11-13T19:06:59Z</time>
      </trkpt>
      <trkpt lat="47.26704" lon="-1.66606">
        <ele>46</ele>
        <time>2023-11-13T19:07:38Z</time>
      </trkpt>
      <trkpt lat="47.26678" lon="-1.66542">
        <ele>45</ele>
        <time>2023-11-13T19:08:46Z</time>
      </trkpt>
      <trkpt lat="47.26659" lon="-1.66462">
        <ele>42</ele>
        <time>2023-11-13T19:10:02Z</time>
      </trkpt>
      <trkpt lat="47.26649" lon="-1.66431">
        <ele>41</ele>
        <time>2023-11-13T19:10:33Z</time>
      </trkpt>
      <trkpt lat="47.26645" lon="-1.66411">
        <ele>40</ele>
        <time>2023-11-13T19:10:52Z</time>
      </trkpt>
      <trkpt lat="47.26641" lon="-1.66402">
        <ele>41</ele>
        <time>2023-11-13T19:11:02Z</time>
      </trkpt>
      <trkpt lat="47.2664" lon="-1.66381">
        <ele>41</ele>
        <time>2023-11-13T19:11:21Z</time>
      </trkpt>
      <trkpt lat="47.26633" lon="-1.66348">
        <ele>40</ele>
        <time>2023-11-13T19:11:52Z</time>
      </trkpt>
      <trkpt lat="47.26628" lon="-1.66332">
        <ele>40</ele>
        <time>2023-11-13T19:12:08Z</time>
      </trkpt>
      <trkpt lat="47.26622" lon="-1.66323">
        <ele>40</ele>
        <time>2023-11-13T19:12:20Z</time>
      </trkpt>
      <trkpt lat="47.26616" lon="-1.66295">
        <ele>40</ele>
        <time>2023-11-13T19:12:46Z</time>
      </trkpt>
      <trkpt lat="47.2661" lon="-1.66279">
        <ele>40</ele>
        <time>2023-11-13T19:13:03Z</time>
      </trkpt>
      <trkpt lat="47.26608" lon="-1.66251">
        <ele>40</ele>
        <time>2023-11-13T19:13:28Z</time>
      </trkpt>
      <trkpt lat="47.26622" lon="-1.66207">
        <ele>41</ele>
        <time>2023-11-13T19:14:12Z</time>
      </trkpt>
      <trkpt lat="47.2662" lon="-1.66178">
        <ele>41</ele>
        <time>2023-11-13T19:14:39Z</time>
      </trkpt>
      <trkpt lat="47.26633" lon="-1.6617">
        <ele>42</ele>
        <time>2023-11-13T19:14:58Z</time>
      </trkpt>
      <trkpt lat="47.26645" lon="-1.66152">
        <ele>43</ele>
        <time>2023-11-13T19:15:20Z</time>
      </trkpt>
      <trkpt lat="47.26638" lon="-1.6613">
        <ele>43</ele>
        <time>2023-11-13T19:15:42Z</time>
      </trkpt>
      <trkpt lat="47.26637" lon="-1.66102">
        <ele>44</ele>
        <time>2023-11-13T19:16:08Z</time>
      </trkpt>
      <trkpt lat="47.26627" lon="-1.66086">
        <ele>43</ele>
        <time>2023-11-13T19:16:28Z</time>
      </trkpt>
      <trkpt lat="47.26589" lon="-1.66056">
        <ele>40</ele>
        <time>2023-11-13T19:17:25Z</time>
      </trkpt>
      <trkpt lat="47.26543" lon="-1.66057">
        <ele>37</ele>
        <time>2023-11-13T19:18:26Z</time>
      </trkpt>
      <trkpt lat="47.26535" lon="-1.6605">
        <ele>36</ele>
        <time>2023-11-13T19:18:39Z</time>
      </trkpt>
      <trkpt lat="47.26523" lon="-1.66018">
        <ele>34</ele>
        <time>2023-11-13T19:19:12Z</time>
      </trkpt>
      <trkpt lat="47.26525" lon="-1.65958">
        <ele>34</ele>
        <time>2023-11-13T19:20:06Z</time>
      </trkpt>
      <trkpt lat="47.26517" lon="-1.65939">
        <ele>33</ele>
        <time>2023-11-13T19:20:27Z</time>
      </trkpt>
      <trkpt lat="47.26515" lon="-1.65896">
        <ele>34</ele>
        <time>2023-11-13T19:21:06Z</time>
      </trkpt>
      <trkpt lat="47.26522" lon="-1.6585">
        <ele>36</ele>
        <time>2023-11-13T19:21:48Z</time>
      </trkpt>
      <trkpt lat="47.26504" lon="-1.65769">
        <ele>42</ele>
        <time>2023-11-13T19:23:06Z</time>
      </trkpt>
      <trkpt lat="47.26515" lon="-1.65745">
        <ele>43</ele>
        <time>2023-11-13T19:23:32Z</time>
      </trkpt>
      <trkpt lat="47.26533" lon="-1.65731">
        <ele>43</ele>
        <time>2023-11-13T19:23:59Z</time>
      </trkpt>
      <trkpt lat="47.2656" lon="-1.6572">
        <ele>43</ele>
        <time>2023-11-13T19:24:36Z</time>
      </trkpt>
      <trkpt lat="47.26581" lon="-1.65715">
        <ele>43</ele>
        <time>2023-11-13T19:25:05Z</time>
      </trkpt>
      <trkpt lat="47.26585" lon="-1.65709">
        <ele>43</ele>
        <time>2023-11-13T19:25:12Z</time>
      </trkpt>
      <trkpt lat="47.26592" lon="-1.65644">
        <ele>45</ele>
        <time>2023-11-13T19:26:12Z</time>
      </trkpt>
      <trkpt lat="47.26591" lon="-1.65606">
        <ele>46</ele>
        <time>2023-11-13T19:26:46Z</time>
      </trkpt>
      <trkpt lat="47.26601" lon="-1.65602">
        <ele>46</ele>
        <time>2023-11-13T19:27:00Z</time>
      </trkpt>
      <trkpt lat="47.26634" lon="-1.65612">
        <ele>45</ele>
        <time>2023-11-13T19:27:45Z</time>
      </trkpt>
      <trkpt lat="47.26659" lon="-1.65622">
        <ele>44</ele>
        <time>2023-11-13T19:28:20Z</time>
      </trkpt>
      <trkpt lat="47.26664" lon="-1.65621">
        <ele>44</ele>
        <time>2023-11-13T19:28:26Z</time>
      </trkpt>
      <trkpt lat="47.26679" lon="-1.65624">
        <ele>43</ele>
        <time>2023-11-13T19:28:47Z</time>
      </trkpt>
      <trkpt lat="47.2669" lon="-1.6563">
        <ele>42</ele>
        <time>2023-11-13T19:29:02Z</time>
      </trkpt>
      <trkpt lat="47.26701" lon="-1.65622">
        <ele>41</ele>
        <time>2023-11-13T19:29:19Z</time>
      </trkpt>
      <trkpt lat="47.26727" lon="-1.6561">
        <ele>39</ele>
        <time>2023-11-13T19:29:55Z</time>
      </trkpt>
      <trkpt lat="47.26749" lon="-1.65587">
        <ele>37</ele>
        <time>2023-11-13T19:30:31Z</time>
      </trkpt>
      <trkpt lat="47.26776" lon="-1.65545">
        <ele>36</ele>
        <time>2023-11-13T19:31:23Z</time>
      </trkpt>
      <trkpt lat="47.26772" lon="-1.65529">
        <ele>37</ele>
        <time>2023-11-13T19:31:39Z</time>
      </trkpt>
      <trkpt lat="47.26769" lon="-1.65479">
        <ele>39</ele>
        <time>2023-11-13T19:32:24Z</time>
      </trkpt>
      <trkpt lat="47.2676" lon="-1.65448">
        <ele>40</ele>
        <time>2023-11-13T19:32:55Z</time>
      </trkpt>
      <trkpt lat="47.26762" lon="-1.65409">
        <ele>40</ele>
        <time>2023-11-13T19:33:30Z</time>
      </trkpt>
      <trkpt lat="47.26759" lon="-1.65382">
        <ele>39</ele>
        <time>2023-11-13T19:33:55Z</time>
      </trkpt>
      <trkpt lat="47.26742" lon="-1.6535">
        <ele>40</ele>
        <time>2023-11-13T19:34:32Z</time>
      </trkpt>
      <trkpt lat="47.26737" lon="-1.65345">
        <ele>41</ele>
        <time>2023-11-13T19:34:40Z</time>
      </trkpt>
      <trkpt lat="47.26744" lon="-1.65333">
        <ele>40</ele>
        <time>2023-11-13T19:34:54Z</time>
      </trkpt>
      <trkpt lat="47.26758" lon="-1.65328">
        <ele>38</ele>
        <time>2023-11-13T19:35:13Z</time>
      </trkpt>
      <trkpt lat="47.26767" lon="-1.6532">
        <ele>37</ele>
        <time>2023-11-13T19:35:27Z</time>
      </trkpt>
      <trkpt lat="47.26772" lon="-1.65285">
        <ele>37</ele>
        <time>2023-11-13T19:36:00Z</time>
      </trkpt>
      <trkpt lat="47.26771" lon="-1.65272">
        <ele>37</ele>
        <time>2023-11-13T19:36:12Z</time>
      </trkpt>
      <trkpt lat="47.26784" lon="-1.65254">
        <ele>36</ele>
        <time>2023-11-13T19:36:35Z</time>
      </trkpt>
      <trkpt lat="47.26785" lon="-1.65247">
        <ele>36</ele>
        <time>2023-11-13T19:36:42Z</time>
      </trkpt>
      <trkpt lat="47.26778" lon="-1.65211">
        <ele>38</ele>
        <time>2023-11-13T19:37:16Z</time>
      </trkpt>
      <trkpt lat="47.26792" lon="-1.65177">
        <ele>38</ele>
        <time>2023-11-13T19:37:52Z</time>
      </trkpt>
      <trkpt lat="47.2684" lon="-1.65106">
        <ele>35</ele>
        <time>2023-11-13T19:39:23Z</time>
      </trkpt>
      <trkpt lat="47.26852" lon="-1.65057">
        <ele>38</ele>
        <time>2023-11-13T19:40:10Z</time>
      </trkpt>
      <trkpt lat="47.26852" lon="-1.65038">
        <ele>38</ele>
        <time>2023-11-13T19:40:27Z</time>
      </trkpt>
      <trkpt lat="47.26862" lon="-1.65009">
        <ele>39</ele>
        <time>2023-11-13T19:40:56Z</time>
      </trkpt>
      <trkpt lat="47.26892" lon="-1.64953">
        <ele>39</ele>
        <time>2023-11-13T19:42:01Z</time>
      </trkpt>
      <trkpt lat="47.26899" lon="-1.6491">
        <ele>39</ele>
        <time>2023-11-13T19:42:41Z</time>
      </trkpt>
      <trkpt lat="47.26923" lon="-1.64839">
        <ele>39</ele>
        <time>2023-11-13T19:43:53Z</time>
      </trkpt>
      <trkpt lat="47.26926" lon="-1.64836">
        <ele>39</ele>
        <time>2023-11-13T19:43:58Z</time>
      </trkpt>
      <trkpt lat="47.26935" lon="-1.64822">
        <ele>39</ele>
        <time>2023-11-13T19:44:15Z</time>
      </trkpt>
      <trkpt lat="47.26945" lon="-1.64818">
        <ele>38</ele>
        <time>2023-11-13T19:44:29Z</time>
      </trkpt>
      <trkpt lat="47.26964" lon="-1.64817">
        <ele>37</ele>
        <time>2023-11-13T19:44:54Z</time>
      </trkpt>
      <trkpt lat="47.26972" lon="-1.64804">
        <ele>36</ele>
        <time>2023-11-13T19:45:10Z</time>
      </trkpt>
      <trkpt lat="47.26971" lon="-1.64799">
        <ele>36</ele>
        <time>2023-11-13T19:45:15Z</time>
      </trkpt>
      <trkpt lat="47.26981" lon="-1.64743">
        <ele>35</ele>
        <time>2023-11-13T19:46:07Z</time>
      </trkpt>
      <trkpt lat="47.26985" lon="-1.6469">
        <ele>36</ele>
        <time>2023-11-13T19:46:56Z</time>
      </trkpt>
      <trkpt lat="47.26995" lon="-1.64651">
        <ele>36</ele>
        <time>2023-11-13T19:47:34Z</time>
      </trkpt>
      <trkpt lat="47.26995" lon="-1.64637">
        <ele>36</ele>
        <time>2023-11-13T19:47:46Z</time>
      </trkpt>
      <trkpt lat="47.26995" lon="-1.6462">
        <ele>36</ele>
        <time>2023-11-13T19:48:02Z</time>
      </trkpt>
      <trkpt lat="47.26986" lon="-1.64568">
        <ele>38</ele>
        <time>2023-11-13T19:48:50Z</time>
      </trkpt>
      <trkpt lat="47.26986" lon="-1.6453">
        <ele>39</ele>
        <time>2023-11-13T19:49:25Z</time>
      </trkpt>
      <trkpt lat="47.27003" lon="-1.64485">
        <ele>38</ele>
        <time>2023-11-13T19:50:11Z</time>
      </trkpt>
      <trkpt lat="47.27" lon="-1.6448">
        <ele>38</ele>
        <time>2023-11-13T19:50:17Z</time>
      </trkpt>
      <trkpt lat="47.27001" lon="-1.64476">
        <ele>39</ele>
        <time>2023-11-13T19:50:21Z</time>
      </trkpt>
      <trkpt lat="47.27011" lon="-1.64454">
        <ele>39</ele>
        <time>2023-11-13T19:50:45Z</time>
      </trkpt>
      <trkpt lat="47.27028" lon="-1.64445">
        <ele>40</ele>
        <time>2023-11-13T19:51:09Z</time>
      </trkpt>
      <trkpt lat="47.27055" lon="-1.64483">
        <ele>40</ele>
        <time>2023-11-13T19:51:59Z</time>
      </trkpt>
      <trkpt lat="47.27078" lon="-1.64512">
        <ele>41</ele>
        <time>2023-11-13T19:52:39Z</time>
      </trkpt>
      <trkpt lat="47.27083" lon="-1.64521">
        <ele>40</ele>
        <time>2023-11-13T19:52:50Z</time>
      </trkpt>
      <trkpt lat="47.27096" lon="-1.64529">
        <ele>41</ele>
        <time>2023-11-13T19:53:09Z</time>
      </trkpt>
      <trkpt lat="47.2711" lon="-1.64547">
        <ele>41</ele>
        <time>2023-11-13T19:53:34Z</time>
      </trkpt>
      <trkpt lat="47.27149" lon="-1.64541">
        <ele>44</ele>
        <time>2023-11-13T19:54:26Z</time>
      </trkpt>
      <trkpt lat="47.27191" lon="-1.64535">
        <ele>46</ele>
        <time>2023-11-13T19:55:22Z</time>
      </trkpt>
      <trkpt lat="47.27212" lon="-1.64538">
        <ele>46</ele>
        <time>2023-11-13T19:55:50Z</time>
      </trkpt>
      <trkpt lat="47.27251" lon="-1.64534">
        <ele>48</ele>
        <time>2023-11-13T19:56:43Z</time>
      </trkpt>
      <trkpt lat="47.27299" lon="-1.64536">
        <ele>50</ele>
        <time>2023-11-13T19:57:47Z</time>
      </trkpt>
      <trkpt lat="47.27337" lon="-1.64534">
        <ele>51</ele>
        <time>2023-11-13T19:58:37Z</time>
      </trkpt>
      <trkpt lat="47.27396" lon="-1.645">
        <ele>53</ele>
        <time>2023-11-13T20:00:02Z</time>
      </trkpt>
      <trkpt lat="47.2742" lon="-1.64493">
        <ele>54</ele>
        <time>2023-11-13T20:00:35Z</time>
      </trkpt>
      <trkpt lat="47.27425" lon="-1.64495">
        <ele>54</ele>
        <time>2023-11-13T20:00:41Z</time>
      </trkpt>
      <trkpt lat="47.27447" lon="-1.64494">
        <ele>55</ele>
        <time>2023-11-13T20:01:11Z</time>
      </trkpt>
      <trkpt lat="47.27455" lon="-1.64493">
        <ele>56</ele>
        <time>2023-11-13T20:01:22Z</time>
      </trkpt>
      <trkpt lat="47.2747" lon="-1.64493">
        <ele>57</ele>
        <time>2023-11-13T20:01:42Z</time>
      </trkpt>
      <trkpt lat="47.27499" lon="-1.64482">
        <ele>58</ele>
        <time>2023-11-13T20:02:22Z</time>
      </trkpt>
      <trkpt lat="47.27519" lon="-1.64467">
        <ele>59</ele>
        <time>2023-11-13T20:02:51Z</time>
      </trkpt>
      <trkpt lat="47.27554" lon="-1.64452">
        <ele>60</ele>
        <time>2023-11-13T20:03:40Z</time>
      </trkpt>
      <trkpt lat="47.27558" lon="-1.64464">
        <ele>60</ele>
        <time>2023-11-13T20:03:52Z</time>
      </trkpt>
      <trkpt lat="47.27563" lon="-1.64497">
        <ele>60</ele>
        <time>2023-11-13T20:04:23Z</time>
      </trkpt>
      <trkpt lat="47.27566" lon="-1.64532">
        <ele>59</ele>
        <time>2023-11-13T20:04:55Z</time>
      </trkpt>
      <trkpt lat="47.27565" lon="-1.64535">
        <ele>59</ele>
        <time>2023-11-13T20:04:58Z</time>
      </trkpt>
      <trkpt lat="47.27563" lon="-1.64562">
        <ele>58</ele>
        <time>2023-11-13T20:05:22Z</time>
      </trkpt>
      <trkpt lat="47.27566" lon="-1.64588">
        <ele>58</ele>
        <time>2023-11-13T20:05:46Z</time>
      </trkpt>
      <trkpt lat="47.27559" lon="-1.64608">
        <ele>58</ele>
        <time>2023-11-13T20:06:07Z</time>
      </trkpt>
      <trkpt lat="47.27556" lon="-1.64636">
        <ele>58</ele>
        <time>2023-11-13T20:06:32Z</time>
      </trkpt>
      <trkpt lat="47.2755" lon="-1.64703">
        <ele>59</ele>
        <time>2023-11-13T20:07:33Z</time>
      </trkpt>
      <trkpt lat="47.2755" lon="-1.64722">
        <ele>60</ele>
        <time>2023-11-13T20:07:51Z</time>
      </trkpt>
      <trkpt lat="47.27546" lon="-1.64751">
        <ele>61</ele>
        <time>2023-11-13T20:08:17Z</time>
      </trkpt>
      <trkpt lat="47.27534" lon="-1.64794">
        <ele>61</ele>
        <time>2023-11-13T20:09:00Z</time>
      </trkpt>
      <trkpt lat="47.27529" lon="-1.64843">
        <ele>62</ele>
        <time>2023-11-13T20:09:44Z</time>
      </trkpt>
      <trkpt lat="47.27535" lon="-1.64902">
        <ele>62</ele>
        <time>2023-11-13T20:10:38Z</time>
      </trkpt>
      <trkpt lat="47.27535" lon="-1.64938">
        <ele>62</ele>
        <time>2023-11-13T20:11:11Z</time>
      </trkpt>
      <trkpt lat="47.27537" lon="-1.64951">
        <ele>62</ele>
        <time>2023-11-13T20:11:23Z</time>
      </trkpt>
      <trkpt lat="47.27536" lon="-1.64997">
        <ele>61</ele>
        <time>2023-11-13T20:12:05Z</time>
      </trkpt>
      <trkpt lat="47.27551" lon="-1.65083">
        <ele>61</ele>
        <time>2023-11-13T20:13:25Z</time>
      </trkpt>
      <trkpt lat="47.2755" lon="-1.65089">
        <ele>61</ele>
        <time>2023-11-13T20:13:31Z</time>
      </trkpt>
      <trkpt lat="47.27557" lon="-1.65112">
        <ele>62</ele>
        <time>2023-11-13T20:13:54Z</time>
      </trkpt>
      <trkpt lat="47.27577" lon="-1.65159">
        <ele>64</ele>
        <time>2023-11-13T20:14:44Z</time>
      </trkpt>
      <trkpt lat="47.27589" lon="-1.65197">
        <ele>64</ele>
        <time>2023-11-13T20:15:22Z</time>
      </trkpt>
      <trkpt lat="47.27603" lon="-1.65227">
        <ele>63</ele>
        <time>2023-11-13T20:15:55Z</time>
      </trkpt>
      <trkpt lat="47.27613" lon="-1.65244">
        <ele>62</ele>
        <time>2023-11-13T20:16:15Z</time>
      </trkpt>
      <trkpt lat="47.27626" lon="-1.65253">
        <ele>62</ele>
        <time>2023-11-13T20:16:34Z</time>
      </trkpt>
      <trkpt lat="47.27633" lon="-1.65252">
        <ele>62</ele>
        <time>2023-11-13T20:16:44Z</time>
      </trkpt>
      <trkpt lat="47.2764" lon="-1.6525">
        <ele>62</ele>
        <time>2023-11-13T20:16:53Z</time>
      </trkpt>
      <trkpt lat="47.27634" lon="-1.65253">
        <ele>62</ele>
        <time>2023-11-13T20:17:02Z</time>
      </trkpt>
      <trkpt lat="47.27632" lon="-1.65253">
        <ele>62</ele>
        <time>2023-11-13T20:17:04Z</time>
      </trkpt>
      <trkpt lat="47.27617" lon="-1.6524">
        <ele>62</ele>
        <time>2023-11-13T20:17:28Z</time>
      </trkpt>
      <trkpt lat="47.27607" lon="-1.65225">
        <ele>63</ele>
        <time>2023-11-13T20:17:47Z</time>
      </trkpt>
      <trkpt lat="47.2761" lon="-1.65233">
        <ele>62</ele>
        <time>2023-11-13T20:17:55Z</time>
      </trkpt>
      <trkpt lat="47.27617" lon="-1.65236">
        <ele>62</ele>
        <time>2023-11-13T20:18:05Z</time>
      </trkpt>
      <trkpt lat="47.27625" lon="-1.65258">
        <ele>62</ele>
        <time>2023-11-13T20:18:27Z</time>
      </trkpt>
      <trkpt lat="47.27645" lon="-1.65321">
        <ele>59</ele>
        <time>2023-11-13T20:19:30Z</time>
      </trkpt>
      <trkpt lat="47.27661" lon="-1.65345">
        <ele>58</ele>
        <time>2023-11-13T20:20:01Z</time>
      </trkpt>
      <trkpt lat="47.27689" lon="-1.65359">
        <ele>58</ele>
        <time>2023-11-13T20:20:40Z</time>
      </trkpt>
      <trkpt lat="47.27704" lon="-1.65418">
        <ele>58</ele>
        <time>2023-11-13T20:21:37Z</time>
      </trkpt>
      <trkpt lat="47.27721" lon="-1.65443">
        <ele>59</ele>
        <time>2023-11-13T20:22:09Z</time>
      </trkpt>
      <trkpt lat="47.27728" lon="-1.65449">
        <ele>60</ele>
        <time>2023-11-13T20:22:20Z</time>
      </trkpt>
      <trkpt lat="47.27745" lon="-1.65452">
        <ele>61</ele>
        <time>2023-11-13T20:22:43Z</time>
      </trkpt>
      <trkpt lat="47.27769" lon="-1.65451">
        <ele>61</ele>
        <time>2023-11-13T20:23:15Z</time>
      </trkpt>
      <trkpt lat="47.27803" lon="-1.65458">
        <ele>60</ele>
        <time>2023-11-13T20:24:01Z</time>
      </trkpt>
      <trkpt lat="47.2782" lon="-1.65456">
        <ele>60</ele>
        <time>2023-11-13T20:24:23Z</time>
      </trkpt>
      <trkpt lat="47.2784" lon="-1.65464">
        <ele>60</ele>
        <time>2023-11-13T20:24:51Z</time>
      </trkpt>
      <trkpt lat="47.27856" lon="-1.65466">
        <ele>60</ele>
        <time>2023-11-13T20:25:13Z</time>
      </trkpt>
      <trkpt lat="47.27879" lon="-1.65479">
        <ele>60</ele>
        <time>2023-11-13T20:25:45Z</time>
      </trkpt>
      <trkpt lat="47.279" lon="-1.65507">
        <ele>61</ele>
        <time>2023-11-13T20:26:23Z</time>
      </trkpt>
      <trkpt lat="47.27905" lon="-1.65525">
        <ele>61</ele>
        <time>2023-11-13T20:26:41Z</time>
      </trkpt>
      <trkpt lat="47.2791" lon="-1.65584">
        <ele>61</ele>
        <time>2023-11-13T20:27:35Z</time>
      </trkpt>
      <trkpt lat="47.27918" lon="-1.65638">
        <ele>62</ele>
        <time>2023-11-13T20:28:25Z</time>
      </trkpt>
      <trkpt lat="47.27919" lon="-1.65665">
        <ele>62</ele>
        <time>2023-11-13T20:28:49Z</time>
      </trkpt>
      <trkpt lat="47.27917" lon="-1.65688">
        <ele>62</ele>
        <time>2023-11-13T20:29:10Z</time>
      </trkpt>
      <trkpt lat="47.27915" lon="-1.65875">
        <ele>64</ele>
        <time>2023-11-13T20:31:59Z</time>
      </trkpt>
      <trkpt lat="47.27927" lon="-1.65951">
        <ele>65</ele>
        <time>2023-11-13T20:33:10Z</time>
      </trkpt>
      <trkpt lat="47.27925" lon="-1.6597">
        <ele>65</ele>
        <time>2023-11-13T20:33:27Z</time>
      </trkpt>
      <trkpt lat="47.27927" lon="-1.65975">
        <ele>65</ele>
        <time>2023-11-13T20:33:33Z</time>
      </trkpt>
      <trkpt lat="47.27923" lon="-1.6601">
        <ele>65</ele>
        <time>2023-11-13T20:34:05Z</time>
      </trkpt>
      <trkpt lat="47.27939" lon="-1.66053">
        <ele>65</ele>
        <time>2023-11-13T20:34:49Z</time>
      </trkpt>
      <trkpt lat="47.27942" lon="-1.66069">
        <ele>65</ele>
        <time>2023-11-13T20:35:04Z</time>
      </trkpt>
      <trkpt lat="47.27949" lon="-1.66084">
        <ele>65</ele>
        <time>2023-11-13T20:35:21Z</time>
      </trkpt>
      <trkpt lat="47.27955" lon="-1.6609">
        <ele>65</ele>
        <time>2023-11-13T20:35:30Z</time>
      </trkpt>
      <trkpt lat="47.27974" lon="-1.66093">
        <ele>64</ele>
        <time>2023-11-13T20:35:56Z</time>
      </trkpt>
      <trkpt lat="47.27988" lon="-1.66093">
        <ele>63</ele>
        <time>2023-11-13T20:36:15Z</time>
      </trkpt>
      <trkpt lat="47.28049" lon="-1.66086">
        <ele>63</ele>
        <time>2023-11-13T20:37:36Z</time>
      </trkpt>
      <trkpt lat="47.281" lon="-1.66086">
        <ele>63</ele>
        <time>2023-11-13T20:38:44Z</time>
      </trkpt>
      <trkpt lat="47.28125" lon="-1.66088">
        <ele>63</ele>
        <time>2023-11-13T20:39:18Z</time>
      </trkpt>
      <trkpt lat="47.2818" lon="-1.66334">
        <ele>62</ele>
        <time>2023-11-13T20:43:12Z</time>
      </trkpt>
      <trkpt lat="47.28183" lon="-1.66366">
        <ele>63</ele>
        <time>2023-11-13T20:43:41Z</time>
      </trkpt>
      <trkpt lat="47.2818" lon="-1.66378">
        <ele>63</ele>
        <time>2023-11-13T20:43:53Z</time>
      </trkpt>
      <trkpt lat="47.2817" lon="-1.66389">
        <ele>63</ele>
        <time>2023-11-13T20:44:10Z</time>
      </trkpt>
      <trkpt lat="47.28153" lon="-1.66401">
        <ele>63</ele>
        <time>2023-11-13T20:44:35Z</time>
      </trkpt>
      <trkpt lat="47.28148" lon="-1.66403">
        <ele>63</ele>
        <time>2023-11-13T20:44:42Z</time>
      </trkpt>
      <trkpt lat="47.28127" lon="-1.66423">
        <ele>62</ele>
        <time>2023-11-13T20:45:15Z</time>
      </trkpt>
      <trkpt lat="47.28081" lon="-1.66455">
        <ele>62</ele>
        <time>2023-11-13T20:46:23Z</time>
      </trkpt>
      <trkpt lat="47.28034" lon="-1.66481">
        <ele>63</ele>
        <time>2023-11-13T20:47:30Z</time>
      </trkpt>
      <trkpt lat="47.27998" lon="-1.66498">
        <ele>64</ele>
        <time>2023-11-13T20:48:20Z</time>
      </trkpt>
      <trkpt lat="47.27994" lon="-1.66502">
        <ele>64</ele>
        <time>2023-11-13T20:48:27Z</time>
      </trkpt>
      <trkpt lat="47.27996" lon="-1.66512">
        <ele>64</ele>
        <time>2023-11-13T20:48:36Z</time>
      </trkpt>
      <trkpt lat="47.28044" lon="-1.66575">
        <ele>63</ele>
        <time>2023-11-13T20:50:02Z</time>
      </trkpt>
      <trkpt lat="47.28061" lon="-1.66591">
        <ele>62</ele>
        <time>2023-11-13T20:50:29Z</time>
      </trkpt>
      <trkpt lat="47.28087" lon="-1.66627">
        <ele>62</ele>
        <time>2023-11-13T20:51:17Z</time>
      </trkpt>
      <trkpt lat="47.28093" lon="-1.66644">
        <ele>63</ele>
        <time>2023-11-13T20:51:34Z</time>
      </trkpt>
      <trkpt lat="47.28093" lon="-1.66669">
        <ele>63</ele>
        <time>2023-11-13T20:51:57Z</time>
      </trkpt>
      <trkpt lat="47.28085" lon="-1.66701">
        <ele>63</ele>
        <time>2023-11-13T20:52:28Z</time>
      </trkpt>
      <trkpt lat="47.28071" lon="-1.66818">
        <ele>62</ele>
        <time>2023-11-13T20:54:15Z</time>
      </trkpt>
      <trkpt lat="47.28062" lon="-1.66867">
        <ele>62</ele>
        <time>2023-11-13T20:55:01Z</time>
      </trkpt>
      <trkpt lat="47.28061" lon="-1.66883">
        <ele>62</ele>
        <time>2023-11-13T20:55:16Z</time>
      </trkpt>
      <trkpt lat="47.28041" lon="-1.66988">
        <ele>62</ele>
        <time>2023-11-13T20:56:54Z</time>
      </trkpt>
      <trkpt lat="47.2802" lon="-1.67085">
        <ele>63</ele>
        <time>2023-11-13T20:58:26Z</time>
      </trkpt>
      <trkpt lat="47.28" lon="-1.67146">
        <ele>62</ele>
        <time>2023-11-13T20:59:28Z</time>
      </trkpt>
      <trkpt lat="47.27978" lon="-1.67233">
        <ele>62</ele>
        <time>2023-11-13T21:00:52Z</time>
      </trkpt>
      <trkpt lat="47.27961" lon="-1.6728">
        <ele>62</ele>
        <time>2023-11-13T21:01:40Z</time>
      </trkpt>
      <trkpt lat="47.2793" lon="-1.67391">
        <ele>62</ele>
        <time>2023-11-13T21:03:29Z</time>
      </trkpt>
      <trkpt lat="47.2792" lon="-1.6742">
        <ele>62</ele>
        <time>2023-11-13T21:03:58Z</time>
      </trkpt>
      <trkpt lat="47.27922" lon="-1.67431">
        <ele>61</ele>
        <time>2023-11-13T21:04:09Z</time>
      </trkpt>
      <trkpt lat="47.27927" lon="-1.67433">
        <ele>61</ele>
        <time>2023-11-13T21:04:15Z</time>
      </trkpt>
      <trkpt lat="47.27937" lon="-1.67441">
        <ele>60</ele>
        <time>2023-11-13T21:04:31Z</time>
      </trkpt>
      <trkpt lat="47.27964" lon="-1.67447">
        <ele>60</ele>
        <time>2023-11-13T21:05:07Z</time>
      </trkpt>
      <trkpt lat="47.28007" lon="-1.67473">
        <ele>59</ele>
        <time>2023-11-13T21:06:09Z</time>
      </trkpt>
      <trkpt lat="47.28009" lon="-1.67516">
        <ele>58</ele>
        <time>2023-11-13T21:06:48Z</time>
      </trkpt>
      <trkpt lat="47.28006" lon="-1.67539">
        <ele>59</ele>
        <time>2023-11-13T21:07:09Z</time>
      </trkpt>
      <trkpt lat="47.27993" lon="-1.67713">
        <ele>58</ele>
        <time>2023-11-13T21:09:48Z</time>
      </trkpt>
      <trkpt lat="47.27977" lon="-1.67745">
        <ele>57</ele>
        <time>2023-11-13T21:10:24Z</time>
      </trkpt>
      <trkpt lat="47.27929" lon="-1.6775">
        <ele>57</ele>
        <time>2023-11-13T21:11:28Z</time>
      </trkpt>
      <trkpt lat="47.27873" lon="-1.67778">
        <ele>59</ele>
        <time>2023-11-13T21:12:47Z</time>
      </trkpt>
      <trkpt lat="47.27849" lon="-1.67771">
        <ele>60</ele>
        <time>2023-11-13T21:13:20Z</time>
      </trkpt>
      <trkpt lat="47.27824" lon="-1.67773">
        <ele>61</ele>
        <time>2023-11-13T21:13:53Z</time>
      </trkpt>
      <trkpt lat="47.2781" lon="-1.6778">
        <ele>61</ele>
        <time>2023-11-13T21:14:13Z</time>
      </trkpt>
      <trkpt lat="47.27791" lon="-1.67807">
        <ele>60</ele>
        <time>2023-11-13T21:14:48Z</time>
      </trkpt>
      <trkpt lat="47.27761" lon="-1.67836">
        <ele>60</ele>
        <time>2023-11-13T21:15:36Z</time>
      </trkpt>
      <trkpt lat="47.27707" lon="-1.67905">
        <ele>60</ele>
        <time>2023-11-13T21:17:11Z</time>
      </trkpt>
      <trkpt lat="47.27636" lon="-1.68017">
        <ele>62</ele>
        <time>2023-11-13T21:19:30Z</time>
      </trkpt>
      <trkpt lat="47.27625" lon="-1.68046">
        <ele>61</ele>
        <time>2023-11-13T21:20:00Z</time>
      </trkpt>
      <trkpt lat="47.27623" lon="-1.68029">
        <ele>62</ele>
        <time>2023-11-13T21:20:16Z</time>
      </trkpt>
      <trkpt lat="47.27576" lon="-1.68022">
        <ele>62</ele>
        <time>2023-11-13T21:21:19Z</time>
      </trkpt>
      <trkpt lat="47.27562" lon="-1.68023">
        <ele>62</ele>
        <time>2023-11-13T21:21:37Z</time>
      </trkpt>
      <trkpt lat="47.27552" lon="-1.68041">
        <ele>62</ele>
        <time>2023-11-13T21:21:58Z</time>
      </trkpt>
      <trkpt lat="47.27538" lon="-1.68043">
        <ele>62</ele>
        <time>2023-11-13T21:22:17Z</time>
      </trkpt>
      <trkpt lat="47.27529" lon="-1.68075">
        <ele>61</ele>
        <time>2023-11-13T21:22:49Z</time>
      </trkpt>
      <trkpt lat="47.27518" lon="-1.6814">
        <ele>60</ele>
        <time>2023-11-13T21:23:49Z</time>
      </trkpt>
      <trkpt lat="47.27509" lon="-1.68213">
        <ele>60</ele>
        <time>2023-11-13T21:24:56Z</time>
      </trkpt>
      <trkpt lat="47.27507" lon="-1.68247">
        <ele>59</ele>
        <time>2023-11-13T21:25:27Z</time>
      </trkpt>
      <trkpt lat="47.2751" lon="-1.68288">
        <ele>58</ele>
        <time>2023-11-13T21:26:05Z</time>
      </trkpt>
      <trkpt lat="47.27505" lon="-1.68347">
        <ele>57</ele>
        <time>2023-11-13T21:26:58Z</time>
      </trkpt>
      <trkpt lat="47.27498" lon="-1.68361">
        <ele>56</ele>
        <time>2023-11-13T21:27:14Z</time>
      </trkpt>
      <trkpt lat="47.27496" lon="-1.68368">
        <ele>55</ele>
        <time>2023-11-13T21:27:21Z</time>
      </trkpt>
      <trkpt lat="47.27489" lon="-1.68377">
        <ele>54</ele>
        <time>2023-11-13T21:27:33Z</time>
      </trkpt>
      <trkpt lat="47.27464" lon="-1.68413">
        <ele>49</ele>
        <time>2023-11-13T21:28:20Z</time>
      </trkpt>
      <trkpt lat="47.27472" lon="-1.68435">
        <ele>49</ele>
        <time>2023-11-13T21:28:43Z</time>
      </trkpt>
      <trkpt lat="47.2747" lon="-1.68457">
        <ele>48</ele>
        <time>2023-11-13T21:29:03Z</time>
      </trkpt>
      <trkpt lat="47.27471" lon="-1.68488">
        <ele>48</ele>
        <time>2023-11-13T21:29:31Z</time>
      </trkpt>
      <trkpt lat="47.27463" lon="-1.68503">
        <ele>47</ele>
        <time>2023-11-13T21:29:48Z</time>
      </trkpt>
      <trkpt lat="47.27454" lon="-1.68509">
        <ele>46</ele>
        <time>2023-11-13T21:30:01Z</time>
      </trkpt>
      <trkpt lat="47.27445" lon="-1.68522">
        <ele>46</ele>
        <time>2023-11-13T21:30:18Z</time>
      </trkpt>
      <trkpt lat="47.27454" lon="-1.68532">
        <ele>48</ele>
        <time>2023-11-13T21:30:33Z</time>
      </trkpt>
      <trkpt lat="47.27432" lon="-1.68555">
        <ele>49</ele>
        <time>2023-11-13T21:31:09Z</time>
      </trkpt>
      <trkpt lat="47.27423" lon="-1.68568">
        <ele>50</ele>
        <time>2023-11-13T21:31:26Z</time>
      </trkpt>
      <trkpt lat="47.2741" lon="-1.6857">
        <ele>50</ele>
        <time>2023-11-13T21:31:43Z</time>
      </trkpt>
      <trkpt lat="47.274" lon="-1.68582">
        <ele>51</ele>
        <time>2023-11-13T21:32:01Z</time>
      </trkpt>
      <trkpt lat="47.27396" lon="-1.68597">
        <ele>52</ele>
        <time>2023-11-13T21:32:15Z</time>
      </trkpt>
      <trkpt lat="47.27376" lon="-1.6862">
        <ele>53</ele>
        <time>2023-11-13T21:32:49Z</time>
      </trkpt>
      <trkpt lat="47.27337" lon="-1.6868">
        <ele>55</ele>
        <time>2023-11-13T21:34:04Z</time>
      </trkpt>
      <trkpt lat="47.27318" lon="-1.68701">
        <ele>57</ele>
        <time>2023-11-13T21:34:36Z</time>
      </trkpt>
      <trkpt lat="47.27297" lon="-1.68712">
        <ele>58</ele>
        <time>2023-11-13T21:35:06Z</time>
      </trkpt>
      <trkpt lat="47.27276" lon="-1.68725">
        <ele>59</ele>
        <time>2023-11-13T21:35:36Z</time>
      </trkpt>
      <trkpt lat="47.27258" lon="-1.68742">
        <ele>61</ele>
        <time>2023-11-13T21:36:05Z</time>
      </trkpt>
      <trkpt lat="47.2722" lon="-1.68791">
        <ele>64</ele>
        <time>2023-11-13T21:37:12Z</time>
      </trkpt>
      <trkpt lat="47.27202" lon="-1.68823">
        <ele>65</ele>
        <time>2023-11-13T21:37:50Z</time>
      </trkpt>
      <trkpt lat="47.27195" lon="-1.68828">
        <ele>66</ele>
        <time>2023-11-13T21:38:00Z</time>
      </trkpt>
      <trkpt lat="47.27182" lon="-1.68852">
        <ele>67</ele>
        <time>2023-11-13T21:38:28Z</time>
      </trkpt>
      <trkpt lat="47.27175" lon="-1.6887">
        <ele>67</ele>
        <time>2023-11-13T21:38:47Z</time>
      </trkpt>
      <trkpt lat="47.2716" lon="-1.6886">
        <ele>67</ele>
        <time>2023-11-13T21:39:09Z</time>
      </trkpt>
      <trkpt lat="47.27132" lon="-1.68824">
        <ele>67</ele>
        <time>2023-11-13T21:39:58Z</time>
      </trkpt>
      <trkpt lat="47.27081" lon="-1.68776">
        <ele>66</ele>
        <time>2023-11-13T21:41:19Z</time>
      </trkpt>
      <trkpt lat="47.27091" lon="-1.68751">
        <ele>66</ele>
        <time>2023-11-13T21:41:45Z</time>
      </trkpt>
      <trkpt lat="47.27107" lon="-1.68732">
        <ele>66</ele>
        <time>2023-11-13T21:42:13Z</time>
      </trkpt>
      <trkpt lat="47.27115" lon="-1.68699">
        <ele>65</ele>
        <time>2023-11-13T21:42:44Z</time>
      </trkpt>
      <trkpt lat="47.27099" lon="-1.68673">
        <ele>65</ele>
        <time>2023-11-13T21:43:16Z</time>
      </trkpt>
      <trkpt lat="47.27094" lon="-1.68658">
        <ele>65</ele>
        <time>2023-11-13T21:43:31Z</time>
      </trkpt>
      <trkpt lat="47.27085" lon="-1.68651">
        <ele>65</ele>
        <time>2023-11-13T21:43:45Z</time>
      </trkpt>
      <trkpt lat="47.27072" lon="-1.68631">
        <ele>65</ele>
        <time>2023-11-13T21:44:10Z</time>
      </trkpt>
      <trkpt lat="47.27079" lon="-1.68606">
        <ele>64</ele>
        <time>2023-11-13T21:44:35Z</time>
      </trkpt>
      <trkpt lat="47.27103" lon="-1.68556">
        <ele>61</ele>
        <time>2023-11-13T21:45:30Z</time>
      </trkpt>
      <trkpt lat="47.27101" lon="-1.68521">
        <ele>59</ele>
        <time>2023-11-13T21:46:02Z</time>
      </trkpt>
      <trkpt lat="47.27119" lon="-1.68509">
        <ele>58</ele>
        <time>2023-11-13T21:46:28Z</time>
      </trkpt>
      <trkpt lat="47.27135" lon="-1.68506">
        <ele>58</ele>
        <time>2023-11-13T21:46:50Z</time>
      </trkpt>
      <trkpt lat="47.27151" lon="-1.68499">
        <ele>57</ele>
        <time>2023-11-13T21:47:12Z</time>
      </trkpt>
      <trkpt lat="47.27162" lon="-1.685">
        <ele>57</ele>
        <time>2023-11-13T21:47:27Z</time>
      </trkpt>
      <trkpt lat="47.27176" lon="-1.68491">
        <ele>56</ele>
        <time>2023-11-13T21:47:47Z</time>
      </trkpt>
      <trkpt lat="47.27189" lon="-1.68477">
        <ele>56</ele>
        <time>2023-11-13T21:48:09Z</time>
      </trkpt>
      <trkpt lat="47.27217" lon="-1.6843">
        <ele>55</ele>
        <time>2023-11-13T21:49:05Z</time>
      </trkpt>
      <trkpt lat="47.27202" lon="-1.6841">
        <ele>54</ele>
        <time>2023-11-13T21:49:32Z</time>
      </trkpt>
      <trkpt lat="47.27197" lon="-1.68407">
        <ele>54</ele>
        <time>2023-11-13T21:49:39Z</time>
      </trkpt>
      <trkpt lat="47.27179" lon="-1.68362">
        <ele>52</ele>
        <time>2023-11-13T21:50:27Z</time>
      </trkpt>
      <trkpt lat="47.27177" lon="-1.68352">
        <ele>51</ele>
        <time>2023-11-13T21:50:36Z</time>
      </trkpt>
      <trkpt lat="47.2716" lon="-1.68313">
        <ele>49</ele>
        <time>2023-11-13T21:51:18Z</time>
      </trkpt>
      <trkpt lat="47.27146" lon="-1.68271">
        <ele>47</ele>
        <time>2023-11-13T21:52:00Z</time>
      </trkpt>
      <trkpt lat="47.27135" lon="-1.6825">
        <ele>46</ele>
        <time>2023-11-13T21:52:24Z</time>
      </trkpt>
      <trkpt lat="47.27131" lon="-1.68249">
        <ele>46</ele>
        <time>2023-11-13T21:52:30Z</time>
      </trkpt>
      <trkpt lat="47.2711" lon="-1.68221">
        <ele>46</ele>
        <time>2023-11-13T21:53:08Z</time>
      </trkpt>
      <trkpt lat="47.2709" lon="-1.68197">
        <ele>46</ele>
        <time>2023-11-13T21:53:42Z</time>
      </trkpt>
      <trkpt lat="47.27087" lon="-1.6819">
        <ele>46</ele>
        <time>2023-11-13T21:53:50Z</time>
      </trkpt>
      <trkpt lat="47.27076" lon="-1.68176">
        <ele>47</ele>
        <time>2023-11-13T21:54:09Z</time>
      </trkpt>
      <trkpt lat="47.27086" lon="-1.6815">
        <ele>45</ele>
        <time>2023-11-13T21:54:36Z</time>
      </trkpt>
      <trkpt lat="47.27089" lon="-1.6813">
        <ele>44</ele>
        <time>2023-11-13T21:54:55Z</time>
      </trkpt>
      <trkpt lat="47.27083" lon="-1.68112">
        <ele>43</ele>
        <time>2023-11-13T21:55:13Z</time>
      </trkpt>
      <trkpt lat="47.27076" lon="-1.68105">
        <ele>45</ele>
        <time>2023-11-13T21:55:24Z</time>
      </trkpt>
      <trkpt lat="47.27064" lon="-1.68084">
        <ele>46</ele>
        <time>2023-11-13T21:55:49Z</time>
      </trkpt>
      <trkpt lat="47.2704" lon="-1.68029">
        <ele>51</ele>
        <time>2023-11-13T21:56:48Z</time>
      </trkpt>
      <trkpt lat="47.27047" lon="-1.67976">
        <ele>49</ele>
        <time>2023-11-13T21:57:37Z</time>
      </trkpt>
      <trkpt lat="47.27046" lon="-1.67948">
        <ele>50</ele>
        <time>2023-11-13T21:58:02Z</time>
      </trkpt>
      <trkpt lat="47.27057" lon="-1.67926">
        <ele>48</ele>
        <time>2023-11-13T21:58:27Z</time>
      </trkpt>
      <trkpt lat="47.27068" lon="-1.67888">
        <ele>47</ele>
        <time>2023-11-13T21:59:05Z</time>
      </trkpt>
      <trkpt lat="47.2708" lon="-1.67862">
        <ele>45</ele>
        <time>2023-11-13T21:59:33Z</time>
      </trkpt>
      <trkpt lat="47.27084" lon="-1.67834">
        <ele>45</ele>
        <time>2023-11-13T21:59:59Z</time>
      </trkpt>
      <trkpt lat="47.27099" lon="-1.67787">
        <ele>47</ele>
        <time>2023-11-13T22:00:46Z</time>
      </trkpt>
      <trkpt lat="47.271" lon="-1.67762">
        <ele>48</ele>
        <time>2023-11-13T22:01:09Z</time>
      </trkpt>
      <trkpt lat="47.2712" lon="-1.67709">
        <ele>47</ele>
        <time>2023-11-13T22:02:04Z</time>
      </trkpt>
      <trkpt lat="47.27113" lon="-1.6764">
        <ele>47</ele>
        <time>2023-11-13T22:03:07Z</time>
      </trkpt>
      <trkpt lat="47.27106" lon="-1.67625">
        <ele>46</ele>
        <time>2023-11-13T22:03:23Z</time>
      </trkpt>
      <trkpt lat="47.27104" lon="-1.6761">
        <ele>45</ele>
        <time>2023-11-13T22:03:37Z</time>
      </trkpt>
      <trkpt lat="47.2708" lon="-1.6754">
        <ele>43</ele>
        <time>2023-11-13T22:04:48Z</time>
      </trkpt>
      <trkpt lat="47.27084" lon="-1.67524">
        <ele>42</ele>
        <time>2023-11-13T22:05:03Z</time>
      </trkpt>
      <trkpt lat="47.2708" lon="-1.67502">
        <ele>41</ele>
        <time>2023-11-13T22:05:24Z</time>
      </trkpt>
      <trkpt lat="47.2708" lon="-1.67477">
        <ele>41</ele>
        <time>2023-11-13T22:05:47Z</time>
      </trkpt>
      <trkpt lat="47.27082" lon="-1.67472">
        <ele>41</ele>
        <time>2023-11-13T22:05:52Z</time>
      </trkpt>
      <trkpt lat="47.27082" lon="-1.6744">
        <ele>41</ele>
        <time>2023-11-13T22:06:21Z</time>
      </trkpt>
      <trkpt lat="47.27078" lon="-1.67427">
        <ele>41</ele>
        <time>2023-11-13T22:06:34Z</time>
      </trkpt>
      <trkpt lat="47.2708" lon="-1.67365">
        <ele>39</ele>
        <time>2023-11-13T22:07:30Z</time>
      </trkpt>
      <trkpt lat="47.27083" lon="-1.67358">
        <ele>39</ele>
        <time>2023-11-13T22:07:38Z</time>
      </trkpt>
      <trkpt lat="47.27092" lon="-1.6735">
        <ele>39</ele>
        <time>2023-11-13T22:07:52Z</time>
      </trkpt>
      <trkpt lat="47.27115" lon="-1.6736">
        <ele>41</ele>
        <time>2023-11-13T22:08:24Z</time>
      </trkpt>
      <trkpt lat="47.27122" lon="-1.67354">
        <ele>41</ele>
        <time>2023-11-13T22:08:34Z</time>
      </trkpt>
      <trkpt lat="47.27128" lon="-1.6733">
        <ele>41</ele>
        <time>2023-11-13T22:08:58Z</time>
      </trkpt>
      <trkpt lat="47.27143" lon="-1.6729">
        <ele>43</ele>
        <time>2023-11-13T22:09:39Z</time>
      </trkpt>
      <trkpt lat="47.27142" lon="-1.67262">
        <ele>44</ele>
        <time>2023-11-13T22:10:04Z</time>
      </trkpt>
      <trkpt lat="47.27141" lon="-1.67259">
        <ele>44</ele>
        <time>2023-11-13T22:10:07Z</time>
      </trkpt>
      <trkpt lat="47.27134" lon="-1.67226">
        <ele>46</ele>
        <time>2023-11-13T22:10:39Z</time>
      </trkpt>
      <trkpt lat="47.27116" lon="-1.67197">
        <ele>47</ele>
        <time>2023-11-13T22:11:14Z</time>
      </trkpt>
      <trkpt lat="47.27101" lon="-1.67181">
        <ele>47</ele>
        <time>2023-11-13T22:11:39Z</time>
      </trkpt>
      <trkpt lat="47.27082" lon="-1.67179">
        <ele>45</ele>
        <time>2023-11-13T22:12:04Z</time>
      </trkpt>
      <trkpt lat="47.27067" lon="-1.67171">
        <ele>46</ele>
        <time>2023-11-13T22:12:26Z</time>
      </trkpt>
      <trkpt lat="47.27009" lon="-1.6717">
        <ele>42</ele>
        <time>2023-11-13T22:13:43Z</time>
      </trkpt>
      <trkpt lat="47.26995" lon="-1.67177">
        <ele>41</ele>
        <time>2023-11-13T22:14:03Z</time>
      </trkpt>
      <trkpt lat="47.26958" lon="-1.67184">
        <ele>41</ele>
        <time>2023-11-13T22:14:53Z</time>
      </trkpt>
      <trkpt lat="47.26928" lon="-1.67194">
        <ele>41</ele>
        <time>2023-11-13T22:15:34Z</time>
      </trkpt>
      <trkpt lat="47.26901" lon="-1.67193">
        <ele>41</ele>
        <time>2023-11-13T22:16:10Z</time>
      </trkpt>
      <trkpt lat="47.26868" lon="-1.67164">
        <ele>40</ele>
        <time>2023-11-13T22:17:01Z</time>
      </trkpt>
      <trkpt lat="47.26858" lon="-1.67148">
        <ele>40</ele>
        <time>2023-11-13T22:17:21Z</time>
      </trkpt>
      <trkpt lat="47.26833" lon="-1.67141">
        <ele>40</ele>
        <time>2023-11-13T22:17:55Z</time>
      </trkpt>
      <trkpt lat="47.26802" lon="-1.67141">
        <ele>42</ele>
        <time>2023-11-13T22:18:36Z</time>
      </trkpt>
      <trkpt lat="47.26793" lon="-1.67133">
        <ele>43</ele>
        <time>2023-11-13T22:18:50Z</time>
      </trkpt>
      <trkpt lat="47.26805" lon="-1.67124">
        <ele>43</ele>
        <time>2023-11-13T22:19:08Z</time>
      </trkpt>
    </trkseg>
  </trk>
</gpx>